sensor_id;sensor_type;location;lat;lon;timestamp;P1;durP1;ratioP1;P2;durP2;ratioP2
53519;SDS011;39397;53.204;5.778;2023-09-08T00:01:36;10.50;;;6.55;;
53519;SDS011;39397;53.204;5.778;2023-09-08T00:04:02;9.43;;;6.35;;
53519;SDS011;39397;53.204;5.778;2023-09-08T00:06:29;8.70;;;6.13;;
53519;SDS011;39397;53.204;5.778;2023-09-08T00:08:54;7.80;;;5.68;;
53519;SDS011;39397;53.204;5.778;2023-09-08T00:11:20;6.72;;;5.25;;
53519;SDS011;39397;53.204;5.778;2023-09-08T00:13:46;9.60;;;5.72;;
53519;SDS011;39397;53.204;5.778;2023-09-08T00:16:12;7.80;;;5.78;;
53519;SDS011;39397;53.204;5.778;2023-09-08T00:18:53;7.72;;;6.53;;
53519;SDS011;39397;53.204;5.778;2023-09-08T00:21:19;9.18;;;5.75;;
53519;SDS011;39397;53.204;5.778;2023-09-08T00:23:44;9.65;;;6.40;;
53519;SDS011;39397;53.204;5.778;2023-09-08T00:26:10;10.07;;;7.03;;
53519;SDS011;39397;53.204;5.778;2023-09-08T00:28:36;9.00;;;6.00;;
53519;SDS011;39397;53.204;5.778;2023-09-08T00:31:01;7.97;;;6.40;;
53519;SDS011;39397;53.204;5.778;2023-09-08T00:33:27;10.43;;;6.22;;
53519;SDS011;39397;53.204;5.778;2023-09-08T00:35:53;8.73;;;6.47;;
53519;SDS011;39397;53.204;5.778;2023-09-08T00:38:22;9.02;;;6.18;;
53519;SDS011;39397;53.204;5.778;2023-09-08T00:40:47;8.18;;;6.82;;
53519;SDS011;39397;53.204;5.778;2023-09-08T00:43:13;8.48;;;6.70;;
53519;SDS011;39397;53.204;5.778;2023-09-08T00:45:40;10.10;;;6.43;;
53519;SDS011;39397;53.204;5.778;2023-09-08T00:48:08;7.50;;;6.47;;
53519;SDS011;39397;53.204;5.778;2023-09-08T00:50:37;8.55;;;6.43;;
53519;SDS011;39397;53.204;5.778;2023-09-08T00:53:04;10.40;;;6.75;;
53519;SDS011;39397;53.204;5.778;2023-09-08T00:55:30;8.57;;;6.15;;
53519;SDS011;39397;53.204;5.778;2023-09-08T00:57:57;7.70;;;6.13;;
53519;SDS011;39397;53.204;5.778;2023-09-08T01:00:27;9.43;;;6.43;;
53519;SDS011;39397;53.204;5.778;2023-09-08T01:02:53;10.68;;;6.25;;
53519;SDS011;39397;53.204;5.778;2023-09-08T01:05:19;8.55;;;6.35;;
53519;SDS011;39397;53.204;5.778;2023-09-08T01:07:46;10.98;;;6.55;;
53519;SDS011;39397;53.204;5.778;2023-09-08T01:10:13;8.82;;;6.65;;
53519;SDS011;39397;53.204;5.778;2023-09-08T01:12:40;12.40;;;7.40;;
53519;SDS011;39397;53.204;5.778;2023-09-08T01:15:06;8.23;;;6.72;;
53519;SDS011;39397;53.204;5.778;2023-09-08T01:17:35;7.78;;;6.30;;
53519;SDS011;39397;53.204;5.778;2023-09-08T01:20:03;13.30;;;6.45;;
53519;SDS011;39397;53.204;5.778;2023-09-08T01:25:20;12.32;;;7.35;;
53519;SDS011;39397;53.204;5.778;2023-09-08T01:27:48;8.60;;;6.88;;
53519;SDS011;39397;53.204;5.778;2023-09-08T01:30:16;9.07;;;6.38;;
53519;SDS011;39397;53.204;5.778;2023-09-08T01:32:43;8.20;;;7.20;;
53519;SDS011;39397;53.204;5.778;2023-09-08T01:35:11;8.35;;;7.40;;
53519;SDS011;39397;53.204;5.778;2023-09-08T01:37:40;10.40;;;7.57;;
53519;SDS011;39397;53.204;5.778;2023-09-08T01:40:09;9.13;;;7.07;;
53519;SDS011;39397;53.204;5.778;2023-09-08T01:42:36;8.25;;;7.30;;
53519;SDS011;39397;53.204;5.778;2023-09-08T01:45:04;11.45;;;6.85;;
53519;SDS011;39397;53.204;5.778;2023-09-08T01:47:31;10.68;;;7.32;;
53519;SDS011;39397;53.204;5.778;2023-09-08T01:49:57;11.30;;;7.00;;
53519;SDS011;39397;53.204;5.778;2023-09-08T01:52:23;9.70;;;7.03;;
53519;SDS011;39397;53.204;5.778;2023-09-08T01:54:49;9.10;;;6.65;;
53519;SDS011;39397;53.204;5.778;2023-09-08T01:57:15;12.13;;;6.97;;
53519;SDS011;39397;53.204;5.778;2023-09-08T01:59:41;10.15;;;7.35;;
53519;SDS011;39397;53.204;5.778;2023-09-08T02:02:07;9.57;;;7.30;;
53519;SDS011;39397;53.204;5.778;2023-09-08T02:04:32;8.80;;;7.60;;
53519;SDS011;39397;53.204;5.778;2023-09-08T02:06:58;9.15;;;7.43;;
53519;SDS011;39397;53.204;5.778;2023-09-08T02:09:34;12.23;;;6.65;;
53519;SDS011;39397;53.204;5.778;2023-09-08T02:12:01;8.55;;;7.65;;
53519;SDS011;39397;53.204;5.778;2023-09-08T02:14:27;8.60;;;7.18;;
53519;SDS011;39397;53.204;5.778;2023-09-08T02:16:53;12.05;;;7.28;;
53519;SDS011;39397;53.204;5.778;2023-09-08T02:19:20;11.07;;;7.53;;
53519;SDS011;39397;53.204;5.778;2023-09-08T02:21:45;9.75;;;7.25;;
53519;SDS011;39397;53.204;5.778;2023-09-08T02:24:11;8.50;;;6.90;;
53519;SDS011;39397;53.204;5.778;2023-09-08T02:26:38;12.27;;;7.47;;
53519;SDS011;39397;53.204;5.778;2023-09-08T02:29:04;11.88;;;7.97;;
53519;SDS011;39397;53.204;5.778;2023-09-08T02:31:30;8.25;;;7.13;;
53519;SDS011;39397;53.204;5.778;2023-09-08T02:33:59;8.95;;;7.30;;
53519;SDS011;39397;53.204;5.778;2023-09-08T02:36:26;11.25;;;7.72;;
53519;SDS011;39397;53.204;5.778;2023-09-08T02:38:55;8.77;;;7.95;;
53519;SDS011;39397;53.204;5.778;2023-09-08T02:41:22;7.63;;;6.82;;
53519;SDS011;39397;53.204;5.778;2023-09-08T02:43:48;9.02;;;7.57;;
53519;SDS011;39397;53.204;5.778;2023-09-08T02:46:15;11.55;;;8.15;;
53519;SDS011;39397;53.204;5.778;2023-09-08T02:48:41;10.25;;;7.82;;
53519;SDS011;39397;53.204;5.778;2023-09-08T02:51:07;9.90;;;8.45;;
53519;SDS011;39397;53.204;5.778;2023-09-08T02:53:33;11.50;;;9.57;;
53519;SDS011;39397;53.204;5.778;2023-09-08T02:55:59;10.80;;;7.88;;
53519;SDS011;39397;53.204;5.778;2023-09-08T02:58:28;9.85;;;8.40;;
53519;SDS011;39397;53.204;5.778;2023-09-08T03:00:55;9.68;;;7.65;;
53519;SDS011;39397;53.204;5.778;2023-09-08T03:03:21;10.73;;;7.85;;
53519;SDS011;39397;53.204;5.778;2023-09-08T03:05:47;10.18;;;8.00;;
53519;SDS011;39397;53.204;5.778;2023-09-08T03:08:13;15.07;;;9.02;;
53519;SDS011;39397;53.204;5.778;2023-09-08T03:10:40;11.80;;;9.07;;
53519;SDS011;39397;53.204;5.778;2023-09-08T03:13:06;11.38;;;8.35;;
53519;SDS011;39397;53.204;5.778;2023-09-08T03:15:34;9.48;;;7.88;;
53519;SDS011;39397;53.204;5.778;2023-09-08T03:17:59;9.77;;;8.35;;
53519;SDS011;39397;53.204;5.778;2023-09-08T03:20:25;10.85;;;8.65;;
53519;SDS011;39397;53.204;5.778;2023-09-08T03:22:51;9.52;;;8.52;;
53519;SDS011;39397;53.204;5.778;2023-09-08T03:25:17;13.45;;;9.05;;
53519;SDS011;39397;53.204;5.778;2023-09-08T03:27:46;11.30;;;9.23;;
53519;SDS011;39397;53.204;5.778;2023-09-08T03:30:12;9.68;;;8.70;;
53519;SDS011;39397;53.204;5.778;2023-09-08T03:32:38;11.18;;;9.27;;
53519;SDS011;39397;53.204;5.778;2023-09-08T03:35:04;10.98;;;7.88;;
53519;SDS011;39397;53.204;5.778;2023-09-08T03:37:34;10.52;;;9.02;;
53519;SDS011;39397;53.204;5.778;2023-09-08T03:40:00;10.73;;;8.55;;
53519;SDS011;39397;53.204;5.778;2023-09-08T03:42:26;11.05;;;8.90;;
53519;SDS011;39397;53.204;5.778;2023-09-08T03:44:51;11.50;;;8.25;;
53519;SDS011;39397;53.204;5.778;2023-09-08T03:47:17;11.90;;;8.00;;
53519;SDS011;39397;53.204;5.778;2023-09-08T03:49:43;9.27;;;8.23;;
53519;SDS011;39397;53.204;5.778;2023-09-08T03:52:09;11.63;;;9.48;;
53519;SDS011;39397;53.204;5.778;2023-09-08T03:54:35;13.27;;;9.90;;
53519;SDS011;39397;53.204;5.778;2023-09-08T03:57:02;12.80;;;9.63;;
53519;SDS011;39397;53.204;5.778;2023-09-08T03:59:28;10.95;;;8.32;;
53519;SDS011;39397;53.204;5.778;2023-09-08T04:01:54;12.35;;;8.80;;
53519;SDS011;39397;53.204;5.778;2023-09-08T04:04:19;13.40;;;9.65;;
53519;SDS011;39397;53.204;5.778;2023-09-08T04:06:46;11.70;;;8.88;;
53519;SDS011;39397;53.204;5.778;2023-09-08T04:09:12;13.80;;;9.55;;
53519;SDS011;39397;53.204;5.778;2023-09-08T04:11:38;13.27;;;9.43;;
53519;SDS011;39397;53.204;5.778;2023-09-08T04:14:04;10.52;;;8.43;;
53519;SDS011;39397;53.204;5.778;2023-09-08T04:16:29;12.98;;;9.50;;
53519;SDS011;39397;53.204;5.778;2023-09-08T04:18:56;11.90;;;8.88;;
53519;SDS011;39397;53.204;5.778;2023-09-08T04:21:22;10.18;;;8.98;;
53519;SDS011;39397;53.204;5.778;2023-09-08T04:23:48;13.55;;;9.48;;
53519;SDS011;39397;53.204;5.778;2023-09-08T04:26:13;14.13;;;10.52;;
53519;SDS011;39397;53.204;5.778;2023-09-08T04:28:39;12.00;;;9.55;;
53519;SDS011;39397;53.204;5.778;2023-09-08T04:31:05;12.32;;;10.32;;
53519;SDS011;39397;53.204;5.778;2023-09-08T04:33:34;13.48;;;10.00;;
53519;SDS011;39397;53.204;5.778;2023-09-08T04:35:59;12.27;;;9.52;;
53519;SDS011;39397;53.204;5.778;2023-09-08T04:38:25;13.52;;;9.80;;
53519;SDS011;39397;53.204;5.778;2023-09-08T04:40:51;13.30;;;9.57;;
53519;SDS011;39397;53.204;5.778;2023-09-08T04:43:16;14.05;;;10.50;;
53519;SDS011;39397;53.204;5.778;2023-09-08T04:45:42;12.93;;;9.60;;
53519;SDS011;39397;53.204;5.778;2023-09-08T04:48:08;11.48;;;9.60;;
53519;SDS011;39397;53.204;5.778;2023-09-08T04:50:33;12.20;;;10.52;;
53519;SDS011;39397;53.204;5.778;2023-09-08T04:53:00;10.98;;;9.88;;
53519;SDS011;39397;53.204;5.778;2023-09-08T04:55:25;12.10;;;9.32;;
53519;SDS011;39397;53.204;5.778;2023-09-08T04:57:51;11.68;;;10.20;;
53519;SDS011;39397;53.204;5.778;2023-09-08T05:00:17;15.40;;;9.88;;
53519;SDS011;39397;53.204;5.778;2023-09-08T05:02:43;13.98;;;9.93;;
53519;SDS011;39397;53.204;5.778;2023-09-08T05:05:09;19.17;;;10.07;;
53519;SDS011;39397;53.204;5.778;2023-09-08T05:07:35;12.30;;;10.35;;
53519;SDS011;39397;53.204;5.778;2023-09-08T05:10:01;13.15;;;10.10;;
53519;SDS011;39397;53.204;5.778;2023-09-08T05:12:27;15.90;;;10.75;;
53519;SDS011;39397;53.204;5.778;2023-09-08T05:14:52;10.98;;;9.88;;
53519;SDS011;39397;53.204;5.778;2023-09-08T05:17:22;10.70;;;9.55;;
53519;SDS011;39397;53.204;5.778;2023-09-08T05:19:49;10.30;;;9.07;;
53519;SDS011;39397;53.204;5.778;2023-09-08T05:22:14;11.63;;;10.38;;
53519;SDS011;39397;53.204;5.778;2023-09-08T05:24:40;13.07;;;9.90;;
53519;SDS011;39397;53.204;5.778;2023-09-08T05:27:06;14.23;;;11.70;;
53519;SDS011;39397;53.204;5.778;2023-09-08T05:29:32;17.15;;;12.15;;
53519;SDS011;39397;53.204;5.778;2023-09-08T05:31:57;11.60;;;10.07;;
53519;SDS011;39397;53.204;5.778;2023-09-08T05:34:23;14.20;;;9.65;;
53519;SDS011;39397;53.204;5.778;2023-09-08T05:36:49;12.40;;;10.30;;
53519;SDS011;39397;53.204;5.778;2023-09-08T05:39:14;11.80;;;10.40;;
53519;SDS011;39397;53.204;5.778;2023-09-08T05:41:41;12.07;;;10.10;;
53519;SDS011;39397;53.204;5.778;2023-09-08T05:44:07;12.55;;;10.52;;
53519;SDS011;39397;53.204;5.778;2023-09-08T05:46:33;13.75;;;10.10;;
53519;SDS011;39397;53.204;5.778;2023-09-08T05:48:58;12.48;;;10.02;;
53519;SDS011;39397;53.204;5.778;2023-09-08T05:51:24;12.40;;;9.27;;
53519;SDS011;39397;53.204;5.778;2023-09-08T05:53:50;13.90;;;10.65;;
53519;SDS011;39397;53.204;5.778;2023-09-08T05:56:18;11.20;;;10.00;;
53519;SDS011;39397;53.204;5.778;2023-09-08T05:58:45;13.57;;;9.10;;
53519;SDS011;39397;53.204;5.778;2023-09-08T06:01:15;12.75;;;9.32;;
53519;SDS011;39397;53.204;5.778;2023-09-08T06:03:44;13.30;;;9.05;;
53519;SDS011;39397;53.204;5.778;2023-09-08T06:06:10;14.02;;;9.98;;
53519;SDS011;39397;53.204;5.778;2023-09-08T06:08:36;14.50;;;10.15;;
53519;SDS011;39397;53.204;5.778;2023-09-08T06:11:02;16.55;;;9.45;;
53519;SDS011;39397;53.204;5.778;2023-09-08T06:13:27;13.02;;;9.77;;
53519;SDS011;39397;53.204;5.778;2023-09-08T06:15:53;10.13;;;9.07;;
53519;SDS011;39397;53.204;5.778;2023-09-08T06:18:19;12.57;;;9.10;;
53519;SDS011;39397;53.204;5.778;2023-09-08T06:20:45;11.32;;;8.82;;
53519;SDS011;39397;53.204;5.778;2023-09-08T06:23:19;11.45;;;9.50;;
53519;SDS011;39397;53.204;5.778;2023-09-08T06:25:45;13.20;;;9.25;;
53519;SDS011;39397;53.204;5.778;2023-09-08T06:28:11;11.02;;;9.23;;
53519;SDS011;39397;53.204;5.778;2023-09-08T06:30:36;11.15;;;9.63;;
53519;SDS011;39397;53.204;5.778;2023-09-08T06:33:09;10.73;;;9.05;;
53519;SDS011;39397;53.204;5.778;2023-09-08T06:35:34;9.93;;;8.70;;
53519;SDS011;39397;53.204;5.778;2023-09-08T06:38:00;11.68;;;8.60;;
53519;SDS011;39397;53.204;5.778;2023-09-08T06:40:26;12.70;;;9.13;;
53519;SDS011;39397;53.204;5.778;2023-09-08T06:42:54;11.07;;;8.52;;
53519;SDS011;39397;53.204;5.778;2023-09-08T06:45:20;12.98;;;9.18;;
53519;SDS011;39397;53.204;5.778;2023-09-08T06:47:46;9.82;;;8.38;;
53519;SDS011;39397;53.204;5.778;2023-09-08T06:50:11;12.30;;;9.38;;
53519;SDS011;39397;53.204;5.778;2023-09-08T06:52:37;10.98;;;9.77;;
53519;SDS011;39397;53.204;5.778;2023-09-08T06:55:03;8.95;;;8.02;;
53519;SDS011;39397;53.204;5.778;2023-09-08T06:57:30;11.77;;;9.32;;
53519;SDS011;39397;53.204;5.778;2023-09-08T06:59:56;10.85;;;9.20;;
53519;SDS011;39397;53.204;5.778;2023-09-08T07:02:21;10.77;;;8.43;;
53519;SDS011;39397;53.204;5.778;2023-09-08T07:04:47;12.65;;;7.93;;
53519;SDS011;39397;53.204;5.778;2023-09-08T07:07:13;12.05;;;8.98;;
53519;SDS011;39397;53.204;5.778;2023-09-08T07:09:39;11.35;;;8.88;;
53519;SDS011;39397;53.204;5.778;2023-09-08T07:12:05;9.88;;;8.07;;
53519;SDS011;39397;53.204;5.778;2023-09-08T07:14:34;10.65;;;7.85;;
53519;SDS011;39397;53.204;5.778;2023-09-08T07:16:59;12.95;;;9.15;;
53519;SDS011;39397;53.204;5.778;2023-09-08T07:19:26;10.90;;;9.00;;
53519;SDS011;39397;53.204;5.778;2023-09-08T07:21:52;10.00;;;8.93;;
53519;SDS011;39397;53.204;5.778;2023-09-08T07:24:18;10.85;;;8.38;;
53519;SDS011;39397;53.204;5.778;2023-09-08T07:26:43;10.52;;;8.63;;
53519;SDS011;39397;53.204;5.778;2023-09-08T07:29:09;12.15;;;9.43;;
53519;SDS011;39397;53.204;5.778;2023-09-08T07:31:35;11.32;;;8.60;;
53519;SDS011;39397;53.204;5.778;2023-09-08T07:34:01;11.25;;;8.85;;
53519;SDS011;39397;53.204;5.778;2023-09-08T07:36:27;11.55;;;8.60;;
53519;SDS011;39397;53.204;5.778;2023-09-08T07:38:53;12.80;;;9.20;;
53519;SDS011;39397;53.204;5.778;2023-09-08T07:41:18;10.68;;;8.90;;
53519;SDS011;39397;53.204;5.778;2023-09-08T07:43:44;11.18;;;8.57;;
53519;SDS011;39397;53.204;5.778;2023-09-08T07:46:10;11.32;;;7.95;;
53519;SDS011;39397;53.204;5.778;2023-09-08T07:48:36;11.05;;;8.50;;
53519;SDS011;39397;53.204;5.778;2023-09-08T07:51:02;11.20;;;7.43;;
53519;SDS011;39397;53.204;5.778;2023-09-08T07:53:28;12.02;;;8.75;;
53519;SDS011;39397;53.204;5.778;2023-09-08T07:55:54;12.15;;;8.68;;
53519;SDS011;39397;53.204;5.778;2023-09-08T07:58:21;9.52;;;8.40;;
53519;SDS011;39397;53.204;5.778;2023-09-08T08:00:47;10.77;;;8.68;;
53519;SDS011;39397;53.204;5.778;2023-09-08T08:03:15;11.35;;;8.70;;
53519;SDS011;39397;53.204;5.778;2023-09-08T08:05:41;11.63;;;9.15;;
53519;SDS011;39397;53.204;5.778;2023-09-08T08:08:06;10.50;;;9.05;;
53519;SDS011;39397;53.204;5.778;2023-09-08T08:10:34;11.95;;;9.00;;
53519;SDS011;39397;53.204;5.778;2023-09-08T08:13:00;8.95;;;7.93;;
53519;SDS011;39397;53.204;5.778;2023-09-08T08:15:36;9.73;;;8.68;;
53519;SDS011;39397;53.204;5.778;2023-09-08T08:18:06;12.13;;;8.35;;
53519;SDS011;39397;53.204;5.778;2023-09-08T08:20:34;9.65;;;7.60;;
53519;SDS011;39397;53.204;5.778;2023-09-08T08:23:01;13.25;;;9.10;;
53519;SDS011;39397;53.204;5.778;2023-09-08T08:25:28;10.30;;;8.63;;
53519;SDS011;39397;53.204;5.778;2023-09-08T08:27:53;11.05;;;8.00;;
53519;SDS011;39397;53.204;5.778;2023-09-08T08:30:21;10.38;;;8.07;;
53519;SDS011;39397;53.204;5.778;2023-09-08T08:32:47;10.07;;;7.88;;
53519;SDS011;39397;53.204;5.778;2023-09-08T08:35:13;11.60;;;8.48;;
53519;SDS011;39397;53.204;5.778;2023-09-08T08:37:42;9.38;;;8.05;;
53519;SDS011;39397;53.204;5.778;2023-09-08T08:40:09;10.65;;;8.45;;
53519;SDS011;39397;53.204;5.778;2023-09-08T08:42:39;11.07;;;8.18;;
53519;SDS011;39397;53.204;5.778;2023-09-08T08:45:07;12.05;;;8.40;;
53519;SDS011;39397;53.204;5.778;2023-09-08T08:47:33;9.45;;;8.55;;
53519;SDS011;39397;53.204;5.778;2023-09-08T08:50:00;9.25;;;7.75;;
53519;SDS011;39397;53.204;5.778;2023-09-08T08:52:27;13.27;;;8.60;;
53519;SDS011;39397;53.204;5.778;2023-09-08T08:54:53;13.63;;;9.18;;
53519;SDS011;39397;53.204;5.778;2023-09-08T08:57:23;9.60;;;8.05;;
53519;SDS011;39397;53.204;5.778;2023-09-08T08:59:51;14.13;;;9.60;;
53519;SDS011;39397;53.204;5.778;2023-09-08T09:02:18;9.80;;;8.65;;
53519;SDS011;39397;53.204;5.778;2023-09-08T09:04:44;10.75;;;8.63;;
53519;SDS011;39397;53.204;5.778;2023-09-08T09:07:11;12.55;;;9.05;;
53519;SDS011;39397;53.204;5.778;2023-09-08T09:09:37;9.82;;;8.48;;
53519;SDS011;39397;53.204;5.778;2023-09-08T09:12:05;9.73;;;8.30;;
53519;SDS011;39397;53.204;5.778;2023-09-08T09:14:32;13.80;;;7.60;;
53519;SDS011;39397;53.204;5.778;2023-09-08T09:16:58;14.23;;;7.55;;
53519;SDS011;39397;53.204;5.778;2023-09-08T09:19:25;9.85;;;7.95;;
53519;SDS011;39397;53.204;5.778;2023-09-08T09:21:52;9.82;;;8.75;;
53519;SDS011;39397;53.204;5.778;2023-09-08T09:26:55;9.93;;;8.05;;
53519;SDS011;39397;53.204;5.778;2023-09-08T09:29:21;8.77;;;7.45;;
53519;SDS011;39397;53.204;5.778;2023-09-08T09:32:06;10.82;;;7.57;;
53519;SDS011;39397;53.204;5.778;2023-09-08T09:34:35;9.57;;;7.65;;
53519;SDS011;39397;53.204;5.778;2023-09-08T09:37:00;12.00;;;8.50;;
53519;SDS011;39397;53.204;5.778;2023-09-08T09:39:28;11.07;;;8.70;;
53519;SDS011;39397;53.204;5.778;2023-09-08T09:41:54;10.13;;;8.57;;
53519;SDS011;39397;53.204;5.778;2023-09-08T09:44:22;11.38;;;8.07;;
53519;SDS011;39397;53.204;5.778;2023-09-08T09:46:51;9.80;;;7.78;;
53519;SDS011;39397;53.204;5.778;2023-09-08T09:49:17;9.45;;;7.75;;
53519;SDS011;39397;53.204;5.778;2023-09-08T09:51:45;13.98;;;8.00;;
53519;SDS011;39397;53.204;5.778;2023-09-08T09:54:12;11.30;;;7.18;;
53519;SDS011;39397;53.204;5.778;2023-09-08T09:56:39;13.40;;;7.45;;
53519;SDS011;39397;53.204;5.778;2023-09-08T09:59:09;12.23;;;7.85;;
53519;SDS011;39397;53.204;5.778;2023-09-08T10:01:42;12.20;;;8.13;;
53519;SDS011;39397;53.204;5.778;2023-09-08T10:04:08;10.85;;;7.30;;
53519;SDS011;39397;53.204;5.778;2023-09-08T10:06:35;11.43;;;7.97;;
53519;SDS011;39397;53.204;5.778;2023-09-08T10:09:02;9.60;;;7.00;;
53519;SDS011;39397;53.204;5.778;2023-09-08T10:11:34;12.43;;;8.05;;
53519;SDS011;39397;53.204;5.778;2023-09-08T10:14:03;10.15;;;8.63;;
53519;SDS011;39397;53.204;5.778;2023-09-08T10:16:34;9.98;;;7.70;;
53519;SDS011;39397;53.204;5.778;2023-09-08T10:19:01;11.80;;;6.55;;
53519;SDS011;39397;53.204;5.778;2023-09-08T10:21:32;9.07;;;6.32;;
53519;SDS011;39397;53.204;5.778;2023-09-08T10:24:03;10.77;;;7.18;;
53519;SDS011;39397;53.204;5.778;2023-09-08T10:26:37;11.35;;;6.68;;
53519;SDS011;39397;53.204;5.778;2023-09-08T10:29:08;11.20;;;6.85;;
53519;SDS011;39397;53.204;5.778;2023-09-08T10:31:35;12.20;;;7.95;;
53519;SDS011;39397;53.204;5.778;2023-09-08T10:34:01;9.00;;;6.70;;
53519;SDS011;39397;53.204;5.778;2023-09-08T10:36:28;9.25;;;6.70;;
53519;SDS011;39397;53.204;5.778;2023-09-08T10:38:58;7.57;;;6.32;;
53519;SDS011;39397;53.204;5.778;2023-09-08T10:49:56;8.88;;;7.75;;
53519;SDS011;39397;53.204;5.778;2023-09-08T10:52:23;10.13;;;8.02;;
53519;SDS011;39397;53.204;5.778;2023-09-08T10:54:53;9.73;;;7.25;;
53519;SDS011;39397;53.204;5.778;2023-09-08T10:57:24;9.38;;;7.05;;
53519;SDS011;39397;53.204;5.778;2023-09-08T10:59:51;9.82;;;5.93;;
53519;SDS011;39397;53.204;5.778;2023-09-08T11:05:08;9.32;;;5.93;;
53519;SDS011;39397;53.204;5.778;2023-09-08T11:07:35;10.18;;;5.90;;
53519;SDS011;39397;53.204;5.778;2023-09-08T11:10:03;8.27;;;6.65;;
53519;SDS011;39397;53.204;5.778;2023-09-08T11:12:30;8.43;;;5.65;;
53519;SDS011;39397;53.204;5.778;2023-09-08T11:14:57;7.93;;;5.00;;
53519;SDS011;39397;53.204;5.778;2023-09-08T11:17:29;6.95;;;4.80;;
53519;SDS011;39397;53.204;5.778;2023-09-08T11:19:55;7.25;;;5.22;;
53519;SDS011;39397;53.204;5.778;2023-09-08T11:22:23;9.23;;;5.80;;
53519;SDS011;39397;53.204;5.778;2023-09-08T11:24:50;7.65;;;4.72;;
53519;SDS011;39397;53.204;5.778;2023-09-08T11:27:17;7.13;;;4.47;;
53519;SDS011;39397;53.204;5.778;2023-09-08T11:29:43;7.38;;;4.63;;
53519;SDS011;39397;53.204;5.778;2023-09-08T11:32:10;8.32;;;4.90;;
53519;SDS011;39397;53.204;5.778;2023-09-08T11:34:36;9.60;;;5.30;;
53519;SDS011;39397;53.204;5.778;2023-09-08T11:37:09;9.10;;;4.65;;
53519;SDS011;39397;53.204;5.778;2023-09-08T11:39:38;7.35;;;5.30;;
53519;SDS011;39397;53.204;5.778;2023-09-08T11:42:05;10.48;;;5.53;;
53519;SDS011;39397;53.204;5.778;2023-09-08T11:44:32;9.15;;;5.90;;
53519;SDS011;39397;53.204;5.778;2023-09-08T11:47:02;10.80;;;6.13;;
53519;SDS011;39397;53.204;5.778;2023-09-08T11:49:38;7.68;;;5.53;;
53519;SDS011;39397;53.204;5.778;2023-09-08T11:52:05;8.80;;;5.70;;
53519;SDS011;39397;53.204;5.778;2023-09-08T11:54:32;9.18;;;5.82;;
53519;SDS011;39397;53.204;5.778;2023-09-08T11:57:04;8.32;;;6.05;;
53519;SDS011;39397;53.204;5.778;2023-09-08T11:59:33;8.93;;;6.00;;
53519;SDS011;39397;53.204;5.778;2023-09-08T12:02:00;10.52;;;6.13;;
53519;SDS011;39397;53.204;5.778;2023-09-08T12:04:26;12.68;;;6.85;;
53519;SDS011;39397;53.204;5.778;2023-09-08T12:06:53;14.20;;;6.65;;
53519;SDS011;39397;53.204;5.778;2023-09-08T12:09:21;9.52;;;7.05;;
53519;SDS011;39397;53.204;5.778;2023-09-08T12:11:47;10.13;;;5.88;;
53519;SDS011;39397;53.204;5.778;2023-09-08T12:14:16;9.52;;;5.90;;
53519;SDS011;39397;53.204;5.778;2023-09-08T12:16:42;8.45;;;5.30;;
53519;SDS011;39397;53.204;5.778;2023-09-08T12:19:08;6.65;;;4.70;;
53519;SDS011;39397;53.204;5.778;2023-09-08T12:21:59;11.48;;;5.15;;
53519;SDS011;39397;53.204;5.778;2023-09-08T12:27:35;6.68;;;4.28;;
53519;SDS011;39397;53.204;5.778;2023-09-08T12:30:02;8.10;;;4.40;;
53519;SDS011;39397;53.204;5.778;2023-09-08T12:32:30;8.57;;;4.45;;
53519;SDS011;39397;53.204;5.778;2023-09-08T12:34:57;9.63;;;3.80;;
53519;SDS011;39397;53.204;5.778;2023-09-08T12:37:24;8.27;;;4.25;;
53519;SDS011;39397;53.204;5.778;2023-09-08T12:39:54;7.13;;;4.30;;
53519;SDS011;39397;53.204;5.778;2023-09-08T12:42:21;6.05;;;4.07;;
53519;SDS011;39397;53.204;5.778;2023-09-08T12:44:50;7.15;;;4.20;;
53519;SDS011;39397;53.204;5.778;2023-09-08T12:47:19;8.02;;;3.60;;
53519;SDS011;39397;53.204;5.778;2023-09-08T12:49:44;7.20;;;3.53;;
53519;SDS011;39397;53.204;5.778;2023-09-08T12:52:10;5.93;;;3.33;;
53519;SDS011;39397;53.204;5.778;2023-09-08T12:54:38;8.27;;;3.67;;
53519;SDS011;39397;53.204;5.778;2023-09-08T12:57:03;6.15;;;3.80;;
53519;SDS011;39397;53.204;5.778;2023-09-08T12:59:30;6.10;;;3.70;;
53519;SDS011;39397;53.204;5.778;2023-09-08T13:01:56;6.72;;;3.10;;
53519;SDS011;39397;53.204;5.778;2023-09-08T13:04:23;10.02;;;3.55;;
53519;SDS011;39397;53.204;5.778;2023-09-08T13:06:49;6.70;;;3.28;;
53519;SDS011;39397;53.204;5.778;2023-09-08T13:09:16;4.85;;;3.55;;
53519;SDS011;39397;53.204;5.778;2023-09-08T13:11:44;6.90;;;4.70;;
53519;SDS011;39397;53.204;5.778;2023-09-08T13:14:30;7.95;;;4.00;;
53519;SDS011;39397;53.204;5.778;2023-09-08T13:17:00;7.60;;;3.80;;
53519;SDS011;39397;53.204;5.778;2023-09-08T13:19:26;5.68;;;3.85;;
53519;SDS011;39397;53.204;5.778;2023-09-08T13:21:55;5.22;;;3.58;;
53519;SDS011;39397;53.204;5.778;2023-09-08T13:24:30;6.63;;;3.40;;
53519;SDS011;39397;53.204;5.778;2023-09-08T13:27:09;5.87;;;3.87;;
53519;SDS011;39397;53.204;5.778;2023-09-08T13:29:36;7.00;;;4.20;;
53519;SDS011;39397;53.204;5.778;2023-09-08T13:32:10;6.25;;;4.00;;
53519;SDS011;39397;53.204;5.778;2023-09-08T13:34:41;6.53;;;4.03;;
53519;SDS011;39397;53.204;5.778;2023-09-08T13:37:40;7.30;;;4.57;;
53519;SDS011;39397;53.204;5.778;2023-09-08T13:40:14;9.35;;;4.38;;
53519;SDS011;39397;53.204;5.778;2023-09-08T13:42:43;7.55;;;4.30;;
53519;SDS011;39397;53.204;5.778;2023-09-08T13:45:17;7.80;;;4.00;;
53519;SDS011;39397;53.204;5.778;2023-09-08T13:47:49;5.68;;;4.22;;
53519;SDS011;39397;53.204;5.778;2023-09-08T13:50:21;7.00;;;4.65;;
53519;SDS011;39397;53.204;5.778;2023-09-08T13:56:56;6.35;;;4.35;;
53519;SDS011;39397;53.204;5.778;2023-09-08T13:59:29;7.30;;;3.83;;
53519;SDS011;39397;53.204;5.778;2023-09-08T14:01:59;8.15;;;4.03;;
53519;SDS011;39397;53.204;5.778;2023-09-08T14:04:28;8.32;;;4.35;;
53519;SDS011;39397;53.204;5.778;2023-09-08T14:06:54;7.88;;;4.20;;
53519;SDS011;39397;53.204;5.778;2023-09-08T14:09:20;6.47;;;3.97;;
53519;SDS011;39397;53.204;5.778;2023-09-08T14:11:48;9.52;;;4.55;;
53519;SDS011;39397;53.204;5.778;2023-09-08T14:14:16;8.75;;;4.32;;
53519;SDS011;39397;53.204;5.778;2023-09-08T14:16:49;8.00;;;4.63;;
53519;SDS011;39397;53.204;5.778;2023-09-08T14:19:17;8.85;;;4.50;;
53519;SDS011;39397;53.204;5.778;2023-09-08T14:21:46;6.43;;;4.30;;
53519;SDS011;39397;53.204;5.778;2023-09-08T14:24:12;6.70;;;4.70;;
53519;SDS011;39397;53.204;5.778;2023-09-08T14:26:38;10.00;;;4.47;;
53519;SDS011;39397;53.204;5.778;2023-09-08T14:29:04;6.13;;;4.10;;
53519;SDS011;39397;53.204;5.778;2023-09-08T14:31:43;9.98;;;4.38;;
53519;SDS011;39397;53.204;5.778;2023-09-08T14:34:12;7.03;;;3.97;;
53519;SDS011;39397;53.204;5.778;2023-09-08T14:36:43;6.03;;;3.90;;
53519;SDS011;39397;53.204;5.778;2023-09-08T14:39:09;5.88;;;3.97;;
53519;SDS011;39397;53.204;5.778;2023-09-08T14:41:38;5.85;;;4.00;;
53519;SDS011;39397;53.204;5.778;2023-09-08T14:44:07;7.68;;;4.15;;
53519;SDS011;39397;53.204;5.778;2023-09-08T14:46:36;7.95;;;4.00;;
53519;SDS011;39397;53.204;5.778;2023-09-08T14:49:03;7.72;;;4.63;;
53519;SDS011;39397;53.204;5.778;2023-09-08T14:51:28;8.07;;;4.00;;
53519;SDS011;39397;53.204;5.778;2023-09-08T14:53:54;6.65;;;4.30;;
53519;SDS011;39397;53.204;5.778;2023-09-08T14:56:20;8.60;;;4.15;;
53519;SDS011;39397;53.204;5.778;2023-09-08T14:58:48;6.55;;;4.25;;
53519;SDS011;39397;53.204;5.778;2023-09-08T15:01:14;7.15;;;3.78;;
53519;SDS011;39397;53.204;5.778;2023-09-08T15:03:40;8.90;;;4.75;;
53519;SDS011;39397;53.204;5.778;2023-09-08T15:06:06;5.13;;;4.30;;